EBLG

Liège

Airport
ICAO code
EBLG
Summary
ICAO Region
EUR
ICAO Territory
Location

Liège,

Elevation
659 ft
Coordinates
50° 38' 15" N , 5° 26' 36" E
KCC
Cfb
Metar
Observation
EBLG 081850Z 02007KT CAVOK 21/10 Q1025 NOSIG
Station
Bierset
Date/Time
2022-08-08 18:50:00
Wind direction
20°
Wind speed
07 kts
Lowest cloud amount
clouds and visibility OK
Temperature
21°C
Dew point
10°C
Humidity
49%
QNH
1025 hPa
Weather condition
n/a

Description

Liège Airport, also called Liège-Bierset, is a cargo airport in Belgium.

Climatology

Temperate Marine climate/Oceanic climate (Köppen climate classification Cfb) - Moderately cool summer and comparatively warm winter.

Runways

Designator Length Width Surface Rops
05L/23R 2340 45 ASP Yes/Yes
05R/23L 3287 45 ASP Yes/Yes

Airport map

Aerial View

SKYbrary Partners:

Safety knowledge contributed by: